createdAt,value
2018-01-26T00:01:34.024Z,30.20
2018-01-26T00:04:01.528Z,28.77
2018-01-26T00:06:29.184Z,29.73
2018-01-26T00:08:56.682Z,33.53
2018-01-26T00:11:24.934Z,31.48
2018-01-26T00:13:52.396Z,33.07
2018-01-26T00:16:19.861Z,35.80
2018-01-26T00:18:47.394Z,34.40
2018-01-26T00:21:15.637Z,34.60
2018-01-26T00:23:43.204Z,36.00
2018-01-26T00:26:10.780Z,37.15
2018-01-26T00:28:38.232Z,32.33
2018-01-26T00:31:05.688Z,35.28
2018-01-26T00:33:33.159Z,35.15
2018-01-26T00:36:00.656Z,33.10
2018-01-26T00:38:28.128Z,31.95
2018-01-26T00:40:56.416Z,31.58
2018-01-26T00:43:24.030Z,35.75
2018-01-26T00:45:52.286Z,32.83
2018-01-26T00:48:19.740Z,39.70
2018-01-26T00:50:47.212Z,36.78
2018-01-26T00:53:14.679Z,39.22
2018-01-26T00:55:42.141Z,35.50
2018-01-26T00:58:09.607Z,35.03
2018-01-26T01:00:37.068Z,35.92
2018-01-26T01:03:04.550Z,35.38
2018-01-26T01:05:32.032Z,34.72
2018-01-26T01:07:59.504Z,33.67
2018-01-26T01:10:26.972Z,34.28
2018-01-26T01:12:55.212Z,40.25
2018-01-26T01:15:22.712Z,36.88
2018-01-26T01:17:50.204Z,37.40
2018-01-26T01:20:17.676Z,38.17
2018-01-26T01:22:45.244Z,41.08
2018-01-26T01:25:12.805Z,39.38
2018-01-26T01:27:40.376Z,38.92
2018-01-26T01:30:07.948Z,39.45
2018-01-26T01:32:35.408Z,35.30
2018-01-26T01:35:02.873Z,33.85
2018-01-26T01:37:30.348Z,35.47
2018-01-26T01:39:57.828Z,38.88
2018-01-26T01:42:25.303Z,37.28
2018-01-26T01:44:52.868Z,36.58
2018-01-26T01:47:20.332Z,34.47
2018-01-26T01:49:47.808Z,37.85
2018-01-26T01:52:15.279Z,35.55
2018-01-26T01:54:42.744Z,37.20
2018-01-26T01:57:10.222Z,38.38
2018-01-26T01:59:37.703Z,38.83
2018-01-26T02:02:05.172Z,35.20
2018-01-26T02:04:32.641Z,38.65
2018-01-26T02:07:00.191Z,36.58
2018-01-26T02:09:27.652Z,40.45
2018-01-26T02:11:55.143Z,42.55
2018-01-26T02:14:22.616Z,46.50
2018-01-26T02:16:50.174Z,42.10
2018-01-26T02:19:17.652Z,43.42
2018-01-26T02:21:45.116Z,42.03
2018-01-26T02:24:12.584Z,43.13
2018-01-26T02:26:40.152Z,48.00
2018-01-26T02:29:07.648Z,47.97
2018-01-26T02:31:35.108Z,49.13
2018-01-26T02:34:04.100Z,40.53
2018-01-26T02:36:31.580Z,43.40
2018-01-26T02:38:59.036Z,46.83
2018-01-26T02:41:26.504Z,44.90
2018-01-26T02:43:54.080Z,39.70
2018-01-26T02:46:21.632Z,44.30
2018-01-26T02:48:49.094Z,44.10
2018-01-26T02:51:16.592Z,40.88
2018-01-26T02:53:44.060Z,43.90
2018-01-26T02:56:11.515Z,45.50
2018-01-26T02:58:39.108Z,46.67
2018-01-26T03:01:06.683Z,43.15
2018-01-26T03:03:34.240Z,40.95
2018-01-26T03:06:01.730Z,45.58
2018-01-26T03:08:29.188Z,43.60
2018-01-26T03:10:56.647Z,43.00
2018-01-26T03:13:24.126Z,44.58
2018-01-26T03:15:51.592Z,43.78
2018-01-26T03:18:19.831Z,42.90
2018-01-26T03:20:47.348Z,43.50
2018-01-26T03:23:14.824Z,43.08
2018-01-26T03:25:42.396Z,43.85
2018-01-26T03:28:09.972Z,52.85
2018-01-26T03:30:37.448Z,51.88
2018-01-26T03:33:05.004Z,49.53
2018-01-26T03:35:32.486Z,49.90
2018-01-26T03:38:00.041Z,52.90
2018-01-26T03:40:27.613Z,46.47
2018-01-26T03:42:55.076Z,47.33
2018-01-26T03:45:22.548Z,52.47
2018-01-26T03:47:50.008Z,46.65
2018-01-26T03:50:17.471Z,46.10
2018-01-26T03:52:44.936Z,45.60
2018-01-26T03:55:12.440Z,47.83
2018-01-26T03:57:40.732Z,46.95
2018-01-26T04:00:08.305Z,45.28
2018-01-26T04:02:35.788Z,47.88
2018-01-26T04:05:04.017Z,46.08
2018-01-26T04:07:31.523Z,47.67
2018-01-26T04:09:59.005Z,42.15
2018-01-26T04:12:26.560Z,50.83
2018-01-26T04:14:54.024Z,52.00
2018-01-26T04:17:21.499Z,51.25
2018-01-26T04:19:48.968Z,49.28
2018-01-26T04:22:16.456Z,49.13
2018-01-26T04:24:44.061Z,50.63
2018-01-26T04:27:12.300Z,51.88
2018-01-26T04:29:39.761Z,57.13
2018-01-26T04:32:07.223Z,48.40
2018-01-26T04:34:34.707Z,52.13
2018-01-26T04:37:02.180Z,46.05
2018-01-26T04:39:29.668Z,52.08
2018-01-26T04:41:57.216Z,49.92
2018-01-26T04:44:24.688Z,49.83
2018-01-26T04:46:52.151Z,45.33
2018-01-26T04:49:19.616Z,48.07
2018-01-26T04:51:47.095Z,51.70
2018-01-26T04:54:14.555Z,51.80
2018-01-26T04:56:42.036Z,43.00
2018-01-26T04:59:09.512Z,51.10
2018-01-26T05:01:37.076Z,44.53
2018-01-26T05:04:04.561Z,49.83
2018-01-26T05:06:32.122Z,45.53
2018-01-26T05:08:59.591Z,44.40
2018-01-26T05:11:27.172Z,45.37
2018-01-26T05:13:54.635Z,52.67
2018-01-26T05:16:22.100Z,48.30
2018-01-26T05:18:49.556Z,43.90
2018-01-26T05:21:17.124Z,41.50
2018-01-26T05:23:44.608Z,45.27
2018-01-26T05:26:12.064Z,46.07
2018-01-26T05:28:39.544Z,44.55
2018-01-26T05:31:07.004Z,44.90
2018-01-26T05:33:34.468Z,42.17
2018-01-26T05:36:02.007Z,49.13
2018-01-26T05:38:29.528Z,45.25
2018-01-26T05:40:56.984Z,41.17
2018-01-26T05:43:24.464Z,41.47
2018-01-26T05:45:51.938Z,49.70
2018-01-26T05:48:19.420Z,49.65
2018-01-26T05:50:46.876Z,47.85
2018-01-26T05:53:14.448Z,48.83
2018-01-26T05:55:41.920Z,46.33
2018-01-26T05:58:09.437Z,47.10
2018-01-26T06:00:37.677Z,47.10
2018-01-26T06:03:05.195Z,46.55
2018-01-26T06:05:32.719Z,50.22
2018-01-26T06:08:00.196Z,46.88
2018-01-26T06:10:27.756Z,49.17
2018-01-26T06:12:55.216Z,46.70
2018-01-26T06:15:22.692Z,48.33
2018-01-26T06:17:50.187Z,44.13
2018-01-26T06:20:17.748Z,49.70
2018-01-26T06:22:45.328Z,51.58
2018-01-26T06:25:12.808Z,44.80
2018-01-26T06:27:41.040Z,44.85
2018-01-26T06:30:08.500Z,43.50
2018-01-26T06:32:36.016Z,44.60
2018-01-26T06:35:03.492Z,43.00
2018-01-26T06:37:30.964Z,46.27
2018-01-26T06:39:58.453Z,45.93
2018-01-26T06:42:26.703Z,41.57
2018-01-26T06:44:54.168Z,41.95
2018-01-26T06:47:21.644Z,45.60
2018-01-26T06:49:49.112Z,43.47
2018-01-26T06:52:16.571Z,46.65
2018-01-26T06:54:44.052Z,46.42
2018-01-26T06:57:11.520Z,42.00
2018-01-26T06:59:39.041Z,45.88
2018-01-26T07:02:06.499Z,45.88
2018-01-26T07:04:34.760Z,45.08
2018-01-26T07:07:02.228Z,47.17
2018-01-26T07:09:29.704Z,46.97
2018-01-26T07:11:57.266Z,41.17
2018-01-26T07:14:24.840Z,48.83
2018-01-26T07:16:52.308Z,42.72
2018-01-26T07:19:19.838Z,42.45
2018-01-26T07:21:47.348Z,41.83
2018-01-26T07:24:14.820Z,39.45
2018-01-26T07:26:42.472Z,41.30
2018-01-26T07:29:09.964Z,40.22
2018-01-26T07:31:37.435Z,46.37
2018-01-26T07:34:04.925Z,39.92
2018-01-26T07:36:33.188Z,45.15
2018-01-26T07:39:00.660Z,43.85
2018-01-26T07:41:28.944Z,39.50
2018-01-26T07:43:56.405Z,39.65
2018-01-26T07:46:23.872Z,40.25
2018-01-26T07:48:51.336Z,48.33
2018-01-26T07:51:18.816Z,41.60
2018-01-26T07:53:46.272Z,42.00
2018-01-26T07:56:13.756Z,42.70
2018-01-26T07:58:41.230Z,47.08
2018-01-26T08:01:08.909Z,43.42
2018-01-26T08:03:36.396Z,50.70
2018-01-26T08:06:03.945Z,47.92
2018-01-26T08:08:31.428Z,46.85
2018-01-26T08:10:58.892Z,50.97
2018-01-26T08:13:26.453Z,50.92
2018-01-26T08:15:54.074Z,43.75
2018-01-26T08:18:22.312Z,41.40
2018-01-26T08:20:49.788Z,50.58
2018-01-26T08:23:17.358Z,45.55
2018-01-26T08:25:45.032Z,42.00
2018-01-26T08:28:12.493Z,43.40
2018-01-26T08:30:39.952Z,45.90
2018-01-26T08:33:07.424Z,47.05
2018-01-26T08:35:34.912Z,46.47
2018-01-26T08:38:02.384Z,50.17
2018-01-26T08:40:30.664Z,44.00
2018-01-26T08:42:58.123Z,44.55
2018-01-26T08:45:25.600Z,41.83
2018-01-26T08:47:53.073Z,42.62
2018-01-26T08:50:20.533Z,47.78
2018-01-26T08:52:48.111Z,46.90
2018-01-26T08:55:21.272Z,46.95
2018-01-26T08:57:48.748Z,55.03
2018-01-26T09:00:16.208Z,55.92
2018-01-26T09:02:43.680Z,50.53
2018-01-26T09:05:11.159Z,58.03
2018-01-26T09:07:38.624Z,51.75
2018-01-26T09:10:06.089Z,69.53
2018-01-26T09:12:33.608Z,63.23
2018-01-26T09:15:01.184Z,58.93
2018-01-26T09:17:28.665Z,62.65
2018-01-26T09:19:56.215Z,54.80
2018-01-26T09:22:23.726Z,59.17
2018-01-26T09:24:51.270Z,52.67
2018-01-26T09:27:18.733Z,54.60
2018-01-26T09:29:46.204Z,55.95
2018-01-26T09:32:13.885Z,55.63
2018-01-26T09:34:42.105Z,54.17
2018-01-26T09:37:10.327Z,49.90
2018-01-26T09:39:37.844Z,51.67
2018-01-26T09:42:06.109Z,55.65
2018-01-26T09:44:33.582Z,50.40
2018-01-26T09:47:01.248Z,49.42
2018-01-26T09:49:28.720Z,47.75
2018-01-26T09:51:56.188Z,44.80
2018-01-26T09:54:23.678Z,45.30
2018-01-26T09:56:51.144Z,42.92
2018-01-26T09:59:18.628Z,44.08
2018-01-26T10:01:46.863Z,39.42
2018-01-26T10:04:14.332Z,47.00
2018-01-26T10:06:41.875Z,48.35
2018-01-26T10:09:10.097Z,44.38
2018-01-26T10:11:37.593Z,37.15
2018-01-26T10:14:05.157Z,36.72
2018-01-26T10:16:32.724Z,42.50
2018-01-26T10:19:00.308Z,37.20
2018-01-26T10:21:27.795Z,35.35
2018-01-26T10:23:56.054Z,43.87
2018-01-26T10:26:23.532Z,36.85
2018-01-26T10:28:51.008Z,38.70
2018-01-26T10:31:18.488Z,39.75
2018-01-26T10:33:46.725Z,39.58
2018-01-26T10:36:14.197Z,38.92
2018-01-26T10:38:41.668Z,38.50
2018-01-26T10:41:09.172Z,37.00
2018-01-26T10:43:36.628Z,36.15
2018-01-26T10:46:04.104Z,38.20
2018-01-26T10:48:31.588Z,41.85
2018-01-26T10:50:59.149Z,40.50
2018-01-26T10:53:26.613Z,37.08
2018-01-26T10:55:54.112Z,39.95
2018-01-26T10:58:22.348Z,35.55
2018-01-26T11:00:49.836Z,41.03
2018-01-26T11:03:17.340Z,41.05
2018-01-26T11:05:45.576Z,47.00
2018-01-26T11:08:13.063Z,47.70
2018-01-26T11:10:40.608Z,48.75
2018-01-26T11:13:08.108Z,46.45
2018-01-26T11:15:35.590Z,49.65
2018-01-26T11:18:03.148Z,45.67
2018-01-26T11:20:30.648Z,43.90
2018-01-26T11:22:58.876Z,45.55
2018-01-26T11:25:26.361Z,45.40
2018-01-26T11:27:53.828Z,41.15
2018-01-26T11:30:21.298Z,41.80
2018-01-26T11:32:48.892Z,45.88
2018-01-26T11:35:16.456Z,47.38
2018-01-26T11:37:43.979Z,42.65
2018-01-26T11:40:12.204Z,44.20
2018-01-26T11:42:39.788Z,47.65
2018-01-26T11:45:07.364Z,45.20
2018-01-26T11:47:34.836Z,42.78
2018-01-26T11:50:02.305Z,43.05
2018-01-26T11:52:29.873Z,42.78
2018-01-26T11:54:57.355Z,47.53
2018-01-26T11:57:24.835Z,49.78
2018-01-26T11:59:53.080Z,49.92
2018-01-26T12:02:20.568Z,49.57
2018-01-26T12:04:48.140Z,58.23
2018-01-26T12:07:15.712Z,55.53
2018-01-26T12:09:43.292Z,60.85
2018-01-26T12:12:12.287Z,61.95
2018-01-26T12:14:39.755Z,67.00
2018-01-26T12:17:07.281Z,70.60
2018-01-26T12:19:34.756Z,61.67
2018-01-26T12:22:02.222Z,64.45
2018-01-26T12:24:29.684Z,62.28
2018-01-26T12:26:57.159Z,56.55
2018-01-26T12:29:24.636Z,58.05
2018-01-26T12:31:52.124Z,57.83
2018-01-26T12:34:19.620Z,52.88
2018-01-26T12:36:47.088Z,54.72
2018-01-26T12:39:14.668Z,51.97
2018-01-26T12:41:43.658Z,52.55
2018-01-26T12:44:11.140Z,55.10
2018-01-26T12:46:38.705Z,46.95
2018-01-26T12:49:06.169Z,49.03
2018-01-26T12:51:33.652Z,44.70
2018-01-26T12:54:01.124Z,48.65
2018-01-26T12:56:28.587Z,42.42
2018-01-26T12:58:56.088Z,48.38
2018-01-26T13:01:24.348Z,47.75
2018-01-26T13:03:51.818Z,51.53
2018-01-26T13:06:19.316Z,49.93
2018-01-26T13:08:47.557Z,50.83
2018-01-26T13:11:15.020Z,42.42
2018-01-26T13:13:42.494Z,51.13
2018-01-26T13:16:09.972Z,46.80
2018-01-26T13:18:37.552Z,49.75
2018-01-26T13:21:05.024Z,47.40
2018-01-26T13:23:32.501Z,44.17
2018-01-26T13:26:00.068Z,42.80
2018-01-26T13:28:27.528Z,47.13
2018-01-26T13:30:55.001Z,49.80
2018-01-26T13:33:22.620Z,43.70
2018-01-26T13:35:50.934Z,46.55
2018-01-26T13:38:18.584Z,46.80
2018-01-26T13:40:46.812Z,45.08
2018-01-26T13:43:14.280Z,44.80
2018-01-26T13:45:41.863Z,45.92
2018-01-26T13:48:09.338Z,49.42
2018-01-26T13:50:36.904Z,47.78
2018-01-26T13:53:04.482Z,48.20
2018-01-26T13:55:32.714Z,43.05
2018-01-26T13:58:01.002Z,42.15
2018-01-26T14:00:28.524Z,43.30
2018-01-26T14:02:55.995Z,43.95
2018-01-26T14:05:23.512Z,55.75
2018-01-26T14:07:51.773Z,45.05
2018-01-26T14:10:19.333Z,40.97
2018-01-26T14:12:46.911Z,46.13
2018-01-26T14:15:14.384Z,44.55
2018-01-26T14:17:41.856Z,49.47
2018-01-26T14:20:09.335Z,45.92
2018-01-26T14:22:37.572Z,42.30
2018-01-26T14:25:05.068Z,42.00
2018-01-26T14:27:32.539Z,48.65
2018-01-26T14:30:00.109Z,44.10
2018-01-26T14:32:27.672Z,47.17
2018-01-26T14:34:55.136Z,52.03
2018-01-26T14:37:22.604Z,46.08
2018-01-26T14:39:50.102Z,45.30
2018-01-26T14:42:17.656Z,43.67
2018-01-26T14:44:45.120Z,58.25
2018-01-26T14:47:12.792Z,48.50
2018-01-26T14:49:40.269Z,45.45
2018-01-26T14:52:07.840Z,46.45
2018-01-26T14:54:35.344Z,43.20
2018-01-26T14:57:03.600Z,45.27
2018-01-26T14:59:31.223Z,41.53
2018-01-26T15:01:58.656Z,44.65
2018-01-26T15:04:26.211Z,45.15
2018-01-26T15:06:53.712Z,41.75
2018-01-26T15:09:21.948Z,42.58
2018-01-26T15:11:49.427Z,43.33
2018-01-26T15:14:16.891Z,42.83
2018-01-26T15:16:44.359Z,43.63
2018-01-26T15:19:11.828Z,45.55
2018-01-26T15:21:39.316Z,40.58
2018-01-26T15:24:06.796Z,45.70
2018-01-26T15:26:34.307Z,43.08
2018-01-26T15:29:01.881Z,43.13
2018-01-26T15:31:29.408Z,44.90
2018-01-26T15:33:56.881Z,40.88
2018-01-26T15:36:24.499Z,45.80
2018-01-26T15:38:51.940Z,43.13
2018-01-26T15:41:20.200Z,40.63
2018-01-26T15:43:47.664Z,44.03
2018-01-26T15:46:15.138Z,39.28
2018-01-26T15:48:42.608Z,39.42
2018-01-26T15:51:10.128Z,40.75
2018-01-26T15:53:38.355Z,41.75
2018-01-26T15:56:05.833Z,42.53
2018-01-26T15:58:33.417Z,42.67
2018-01-26T16:01:00.896Z,44.13
2018-01-26T16:03:28.395Z,46.10
2018-01-26T16:05:56.617Z,44.83
2018-01-26T16:08:24.083Z,49.23
2018-01-26T16:10:51.554Z,45.38
2018-01-26T16:13:19.044Z,48.13
2018-01-26T16:15:58.503Z,45.70
2018-01-26T16:18:26.068Z,49.20
2018-01-26T16:20:53.536Z,45.50
2018-01-26T16:23:21.107Z,55.10
2018-01-26T16:25:48.576Z,53.58
2018-01-26T16:28:16.040Z,49.03
2018-01-26T16:30:43.520Z,57.38
2018-01-26T16:33:11.037Z,49.08
2018-01-26T16:35:38.505Z,54.55
2018-01-26T16:38:06.747Z,51.03
2018-01-26T16:40:34.210Z,65.57
2018-01-26T16:43:01.689Z,56.65
2018-01-26T16:45:29.152Z,54.80
2018-01-26T16:47:56.611Z,56.00
2018-01-26T16:50:24.300Z,61.42
2018-01-26T16:52:51.760Z,65.57
2018-01-26T16:55:19.222Z,60.53
2018-01-26T16:57:46.704Z,56.58
2018-01-26T17:00:14.168Z,54.65
2018-01-26T17:02:41.629Z,52.47
2018-01-26T17:05:09.212Z,57.08
2018-01-26T17:07:36.684Z,54.70
2018-01-26T17:10:04.156Z,51.83
2018-01-26T17:12:31.631Z,60.35
2018-01-26T17:14:59.196Z,67.18
2018-01-26T17:17:26.764Z,59.10
2018-01-26T17:19:54.224Z,56.78
2018-01-26T17:22:21.708Z,57.85
2018-01-26T17:24:49.276Z,60.88
2018-01-26T17:27:16.736Z,61.53
2018-01-26T17:29:44.204Z,59.70
2018-01-26T17:32:11.688Z,54.57
2018-01-26T17:34:39.145Z,68.50
2018-01-26T17:37:06.604Z,58.37
2018-01-26T17:39:34.076Z,57.42
2018-01-26T17:42:01.572Z,52.25
2018-01-26T17:44:29.144Z,56.27
2018-01-26T17:46:56.708Z,56.23
2018-01-26T17:49:24.189Z,55.38
2018-01-26T17:51:51.760Z,63.83
2018-01-26T17:54:19.332Z,56.33
2018-01-26T17:56:46.808Z,60.42
2018-01-26T17:59:14.464Z,59.85
2018-01-26T18:01:41.923Z,56.47
2018-01-26T18:04:09.388Z,54.40
2018-01-26T18:06:36.855Z,51.70
2018-01-26T18:09:04.320Z,57.95
2018-01-26T18:11:31.919Z,52.10
2018-01-26T18:13:59.400Z,52.78
2018-01-26T18:16:28.373Z,53.20
2018-01-26T18:18:55.868Z,52.63
2018-01-26T18:21:23.348Z,56.53
2018-01-26T18:23:50.816Z,53.50
2018-01-26T18:26:18.372Z,52.97
2018-01-26T18:28:45.843Z,58.38
2018-01-26T18:31:13.316Z,55.60
2018-01-26T18:33:41.600Z,55.77
2018-01-26T18:36:09.072Z,57.15
2018-01-26T18:38:36.640Z,56.37
2018-01-26T18:41:04.112Z,53.10
2018-01-26T18:43:31.581Z,57.35
2018-01-26T18:45:59.048Z,56.78
2018-01-26T18:48:26.616Z,55.50
2018-01-26T18:50:54.084Z,52.37
2018-01-26T18:53:21.552Z,56.75
2018-01-26T18:55:49.081Z,61.35
2018-01-26T18:58:17.328Z,56.58
2018-01-26T19:00:44.788Z,56.35
2018-01-26T19:03:12.356Z,60.53
2018-01-26T19:05:39.832Z,60.78
2018-01-26T19:08:07.294Z,62.20
2018-01-26T19:10:34.769Z,59.60
2018-01-26T19:13:02.253Z,57.47
2018-01-26T19:15:29.716Z,52.35
2018-01-26T19:17:57.277Z,58.30
2018-01-26T19:20:24.852Z,56.00
2018-01-26T19:22:52.375Z,55.25
2018-01-26T19:25:19.894Z,62.42
2018-01-26T19:27:47.461Z,58.10
2018-01-26T19:30:14.924Z,56.45
2018-01-26T19:32:42.388Z,53.30
2018-01-26T19:35:09.875Z,55.45
2018-01-26T19:37:37.444Z,52.47
2018-01-26T19:40:04.908Z,56.10
2018-01-26T19:42:32.372Z,56.28
2018-01-26T19:44:59.844Z,58.00
2018-01-26T19:47:27.334Z,59.10
2018-01-26T19:49:55.646Z,63.03
2018-01-26T19:52:23.896Z,63.67
2018-01-26T19:54:51.365Z,61.13
2018-01-26T19:57:19.451Z,59.40
2018-01-26T19:59:46.916Z,57.90
2018-01-26T20:02:14.395Z,59.50
2018-01-26T20:04:47.520Z,57.60
2018-01-26T20:07:28.407Z,54.72
2018-01-26T20:09:56.715Z,62.95
2018-01-26T20:12:24.944Z,59.40
2018-01-26T20:14:52.408Z,56.05
2018-01-26T20:17:19.893Z,62.65
2018-01-26T20:19:47.365Z,67.30
2018-01-26T20:22:14.837Z,60.53
2018-01-26T20:24:42.452Z,58.65
2018-01-26T20:27:10.740Z,56.53
2018-01-26T20:29:38.970Z,60.55
2018-01-26T20:32:06.596Z,63.28
2018-01-26T20:34:34.091Z,65.90
2018-01-26T20:37:01.565Z,62.90
2018-01-26T20:39:29.024Z,58.53
2018-01-26T20:41:56.500Z,61.30
2018-01-26T20:44:23.962Z,58.37
2018-01-26T20:46:51.431Z,57.30
2018-01-26T20:49:18.884Z,54.80
2018-01-26T20:51:46.339Z,57.92
2018-01-26T20:54:14.596Z,49.92
2018-01-26T20:56:42.068Z,51.42
2018-01-26T20:59:09.636Z,53.47
2018-01-26T21:01:37.104Z,49.88
2018-01-26T21:04:04.712Z,54.03
2018-01-26T21:06:32.944Z,57.78
2018-01-26T21:09:00.693Z,61.28
2018-01-26T21:11:28.156Z,61.10
2018-01-26T21:13:55.644Z,53.47
2018-01-26T21:16:23.104Z,52.03
2018-01-26T21:18:50.564Z,49.83
2018-01-26T21:21:18.200Z,55.78
2018-01-26T21:23:45.759Z,54.00
2018-01-26T21:26:13.220Z,47.75
2018-01-26T21:28:40.805Z,53.33
2018-01-26T21:31:08.272Z,54.93
2018-01-26T21:33:35.744Z,54.27
2018-01-26T21:36:03.208Z,49.17
2018-01-26T21:38:31.608Z,49.55
2018-01-26T21:40:59.180Z,48.22
2018-01-26T21:43:26.750Z,53.60
2018-01-26T21:45:54.226Z,52.33
2018-01-26T21:48:22.500Z,50.77
2018-01-26T21:50:50.076Z,52.80
2018-01-26T21:53:17.564Z,51.78
2018-01-26T21:55:45.032Z,50.03
2018-01-26T21:58:12.588Z,48.17
2018-01-26T22:00:40.048Z,48.20
2018-01-26T22:03:07.628Z,50.17
2018-01-26T22:05:35.100Z,45.40
2018-01-26T22:08:02.556Z,47.37
2018-01-26T22:10:30.038Z,51.77
2018-01-26T22:12:57.511Z,51.23
2018-01-26T22:15:24.999Z,52.03
2018-01-26T22:17:52.476Z,57.83
2018-01-26T22:20:20.708Z,60.05
2018-01-26T22:22:48.168Z,52.38
2018-01-26T22:25:15.676Z,50.00
2018-01-26T22:27:43.144Z,49.30
2018-01-26T22:30:10.636Z,46.53
2018-01-26T22:32:39.092Z,48.33
2018-01-26T22:35:06.580Z,46.55
2018-01-26T22:37:34.044Z,53.70
2018-01-26T22:40:01.724Z,54.80
2018-01-26T22:42:29.184Z,50.17
2018-01-26T22:44:56.646Z,54.75
2018-01-26T22:47:24.123Z,54.92
2018-01-26T22:49:51.581Z,52.97
2018-01-26T22:52:19.053Z,52.00
2018-01-26T22:54:46.512Z,52.78
2018-01-26T22:57:14.008Z,50.35
2018-01-26T22:59:41.476Z,55.28
2018-01-26T23:02:08.940Z,54.25
2018-01-26T23:04:36.405Z,59.28
2018-01-26T23:07:03.872Z,57.35
2018-01-26T23:09:31.356Z,54.90
2018-01-26T23:11:58.827Z,54.95
2018-01-26T23:14:26.292Z,54.40
2018-01-26T23:16:53.761Z,55.22
2018-01-26T23:19:21.220Z,54.58
2018-01-26T23:21:48.689Z,57.05
2018-01-26T23:24:16.152Z,54.63
2018-01-26T23:26:43.615Z,59.58
2018-01-26T23:29:11.117Z,55.65
2018-01-26T23:31:38.720Z,54.13
2018-01-26T23:34:06.972Z,56.63
2018-01-26T23:36:34.435Z,58.53
2018-01-26T23:39:01.900Z,54.45
2018-01-26T23:41:29.376Z,53.70
2018-01-26T23:43:56.838Z,53.60
2018-01-26T23:46:24.411Z,51.63
2018-01-26T23:48:51.883Z,51.20
2018-01-26T23:51:19.356Z,56.72
2018-01-26T23:53:46.925Z,51.95
2018-01-26T23:56:14.384Z,53.72
2018-01-26T23:58:41.863Z,53.20
